Pagrindinis puslapis
METAR-TAF:

METAR-TAF

Oro uostai :

Dhahran, Saudo Arabija

platuma: 26-16N, ilguma: 050-09E, Aukštis: 26 m

Dabartinis oras

Ataskaita buvo paskelbta 50 minutes, ne 02:00 UTC
Vėjas 4 kt iš Pietų
Temperatūra 23°C
Drėgmė 83%
Slėgis 1006 hPa
Matomumas: 8000 m

METAR: OEDR 220200Z 17004KT 8000 NSC 23/20 Q1006

Laikas: 05:50 (02:50 UTC)

Prognozė

Ataskaita buvo paskelbta 4 valandos ir 45 minutes, ne 22:05 UTC
Prognozė galioja nuo 22 metu 00 UTC su 23 metu 06 UTC
Vėjas 15 kt iš Pietryčių
Matomumas: 7000 m
Tapsmas
nuo 22 metu 19 UTC su 22 metu 21 UTC
Vėjas 15 kt iš Šiaurės/Šiaurės Vakarų
Matomumas: 5000 m
Dulkes pustymas
Tikimybė 30% :
Laikinai
nuo 23 metu 00 UTC su 23 metu 06 UTC
Matomumas: 3000 m

TAF: OEDR 212205Z 2200/2306 14015KT 7000 NSC BECMG 2219/2221 33015KT 5000 BLDU PROB30 TEMPO 2300/2306 3000

Orai ataskaitas ir orų prognozės (METAR, TAF).

turimą stotys yra geltonos ir raudonos taškus žemėlapyje.

Perkelti pele per norėdami pamatyti stoties vardą.

Tada spustelėkite, norėdami matyti oro stebėjimo ir prognozės.

Norėdami pakeisti žemėlapį: spustelėkite ant žalios mygtukų su juodo kryžiaus žemyn,; žalią mygtuką su brūkšneliu, jei norite nutolinti; arba žalių rodyklių gretimoms žemėlapius.


METAR-TAF: